createdAt,value
2022-12-01T00:00:54.337Z,0.24
2022-12-01T00:03:56.782Z,0.27
2022-12-01T00:07:00.589Z,0.23
2022-12-01T00:10:21.998Z,0.24
2022-12-01T00:13:24.489Z,0.18
2022-12-01T00:16:27.020Z,0.11
2022-12-01T00:19:29.478Z,0.16
2022-12-01T00:22:33.234Z,0.15
2022-12-01T00:25:35.704Z,0.24
2022-12-01T00:28:39.103Z,0.23
2022-12-01T00:31:41.680Z,0.16
2022-12-01T00:34:44.149Z,0.10
2022-12-01T00:37:48.017Z,0.09
2022-12-01T00:40:50.543Z,0.04
2022-12-01T00:43:53.997Z,0.09
2022-12-01T00:46:56.451Z,0.11
2022-12-01T00:49:59.026Z,0.23
2022-12-01T00:53:02.827Z,0.26
2022-12-01T00:56:05.532Z,0.33
2022-12-01T00:59:08.000Z,0.41
2022-12-01T01:02:10.746Z,0.48
2022-12-01T01:05:13.296Z,0.49
2022-12-01T01:08:17.091Z,0.60
2022-12-01T01:11:19.610Z,0.49
2022-12-01T01:14:24.166Z,0.55
2022-12-01T01:17:26.686Z,0.60
2022-12-01T01:20:29.674Z,0.71
2022-12-01T01:23:34.010Z,0.79
2022-12-01T01:26:37.293Z,1.01
2022-12-01T01:29:40.032Z,1.30
2022-12-01T01:32:42.432Z,1.15
2022-12-01T01:35:44.851Z,1.18
2022-12-01T01:38:51.146Z,1.17
2022-12-01T01:41:53.646Z,1.19
2022-12-01T01:44:57.273Z,1.05
2022-12-01T01:48:00.312Z,1.00
2022-12-01T01:51:03.238Z,1.04
2022-12-01T01:54:15.565Z,1.07
2022-12-01T01:57:23.928Z,1.29
2022-12-01T02:00:26.599Z,1.12
2022-12-01T02:03:29.526Z,1.15
2022-12-01T02:06:32.082Z,1.17
2022-12-01T02:09:36.577Z,1.32
2022-12-01T02:13:07.023Z,1.26
2022-12-01T02:16:14.359Z,1.28
2022-12-01T02:19:42.093Z,1.20
2022-12-01T02:22:58.404Z,1.31
2022-12-01T02:26:16.299Z,1.19
2022-12-01T02:29:49.543Z,1.16
2022-12-01T02:33:04.521Z,1.17
2022-12-01T02:36:15.658Z,1.29
2022-12-01T02:39:24.098Z,1.24
2022-12-01T02:42:54.446Z,1.31
2022-12-01T02:46:03.850Z,1.26
2022-12-01T02:49:13.749Z,1.32
2022-12-01T02:52:18.328Z,1.24
2022-12-01T02:55:20.943Z,1.16
2022-12-01T02:58:23.753Z,1.17
2022-12-01T03:01:42.615Z,1.08
2022-12-01T03:04:56.430Z,1.04
2022-12-01T03:08:06.995Z,1.02
2022-12-01T03:11:26.907Z,0.94
2022-12-01T03:14:37.282Z,0.67
2022-12-01T03:17:47.173Z,0.73
2022-12-01T03:20:57.659Z,0.61
2022-12-01T03:24:06.279Z,0.40
2022-12-01T03:27:10.615Z,0.36
2022-12-01T03:30:14.964Z,0.37
2022-12-01T03:33:24.097Z,0.26
2022-12-01T03:36:32.393Z,0.22
2022-12-01T03:39:38.338Z,0.18
2022-12-01T03:42:44.723Z,0.33
2022-12-01T03:45:55.476Z,0.11
2022-12-01T03:48:58.412Z,0.17
2022-12-01T03:52:10.844Z,0.17
2022-12-01T03:55:20.370Z,0.15
2022-12-01T03:58:28.531Z,0.00
2022-12-01T04:01:33.023Z,-0.06
2022-12-01T04:04:35.739Z,0.07
2022-12-01T04:07:40.356Z,0.05
2022-12-01T04:10:42.950Z,0.00
2022-12-01T04:13:45.375Z,0.02
2022-12-01T04:16:48.894Z,0.02
2022-12-01T04:19:51.646Z,-0.08
2022-12-01T04:22:55.466Z,-0.12
2022-12-01T04:25:59.083Z,-0.19
2022-12-01T04:29:02.744Z,-0.08
2022-12-01T04:32:05.487Z,-0.03
2022-12-01T04:35:09.581Z,-0.09
2022-12-01T04:38:13.364Z,-0.14
2022-12-01T04:41:15.905Z,-0.13
2022-12-01T04:44:18.504Z,-0.25
2022-12-01T04:47:21.015Z,-0.24
2022-12-01T04:50:23.544Z,-0.28
2022-12-01T04:53:27.364Z,-0.23
2022-12-01T04:56:30.231Z,-0.24
2022-12-01T04:59:32.976Z,-0.30
2022-12-01T05:02:35.364Z,-0.25
2022-12-01T05:05:37.883Z,-0.22
2022-12-01T05:08:42.267Z,-0.24
2022-12-01T05:11:45.070Z,-0.23
2022-12-01T05:14:47.595Z,-0.15
2022-12-01T05:17:50.046Z,-0.21
2022-12-01T05:20:58.348Z,-0.21
2022-12-01T05:24:02.080Z,-0.37
2022-12-01T05:27:04.620Z,-0.43
2022-12-01T05:30:08.321Z,-0.45
2022-12-01T05:33:10.915Z,-0.35
2022-12-01T05:36:13.332Z,-0.43
2022-12-01T05:39:17.296Z,-0.28
2022-12-01T05:42:19.857Z,-0.20
2022-12-01T05:45:22.662Z,-0.09
2022-12-01T05:48:25.831Z,-0.26
2022-12-01T05:51:28.331Z,-0.28
2022-12-01T05:54:32.171Z,-0.38
2022-12-01T05:57:34.667Z,-0.21
2022-12-01T06:00:45.007Z,-0.13
2022-12-01T06:03:48.098Z,-0.14
2022-12-01T06:06:50.767Z,-0.21
2022-12-01T06:09:54.562Z,-0.13
2022-12-01T06:12:57.003Z,-0.19
2022-12-01T06:16:00.558Z,-0.22
2022-12-01T06:19:03.316Z,-0.26
2022-12-01T06:22:06.833Z,-0.35
2022-12-01T06:25:11.226Z,-0.26
2022-12-01T06:28:13.798Z,-0.23
2022-12-01T06:31:16.615Z,-0.13
2022-12-01T06:34:19.088Z,0.03
2022-12-01T06:37:21.626Z,0.21
2022-12-01T06:40:25.525Z,0.45
2022-12-01T06:43:28.414Z,0.29
2022-12-01T06:46:30.918Z,0.44
2022-12-01T06:49:33.613Z,0.37
2022-12-01T06:52:44.068Z,0.40
2022-12-01T06:55:48.015Z,0.38
2022-12-01T06:58:53.096Z,0.47
2022-12-01T07:01:57.688Z,0.45
2022-12-01T07:05:00.628Z,0.57
2022-12-01T07:08:03.618Z,0.76
2022-12-01T07:11:10.121Z,1.17
2022-12-01T07:14:19.559Z,1.59
2022-12-01T07:17:22.080Z,2.16
2022-12-01T07:20:25.133Z,2.08
2022-12-01T07:23:28.506Z,2.51
2022-12-01T07:26:32.472Z,3.02
2022-12-01T07:29:35.142Z,2.73
2022-12-01T07:32:37.788Z,3.46
2022-12-01T07:35:40.441Z,3.96
2022-12-01T07:38:44.132Z,4.47
2022-12-01T07:41:48.219Z,4.65
2022-12-01T07:44:50.973Z,4.97
2022-12-01T07:47:54.381Z,5.59
2022-12-01T07:50:56.980Z,5.68
2022-12-01T07:54:03.093Z,6.17
2022-12-01T07:57:07.159Z,6.52
2022-12-01T08:00:11.231Z,6.89
2022-12-01T08:03:16.567Z,6.57
2022-12-01T08:06:20.206Z,7.36
2022-12-01T08:09:38.745Z,7.34
2022-12-01T08:12:42.919Z,7.45
2022-12-01T08:15:45.704Z,7.68
2022-12-01T08:18:48.651Z,7.32
2022-12-01T08:21:51.275Z,7.20
2022-12-01T08:24:53.682Z,7.38
2022-12-01T08:27:57.551Z,7.13
2022-12-01T08:31:06.360Z,8.12
2022-12-01T08:34:09.216Z,8.26
2022-12-01T08:37:11.778Z,8.07
2022-12-01T08:40:14.596Z,8.78
2022-12-01T08:43:41.829Z,8.78
2022-12-01T08:46:41.191Z,9.31
2022-12-01T08:50:14.302Z,9.51
2022-12-01T08:53:17.066Z,9.08
2022-12-01T08:56:22.912Z,9.32
2022-12-01T08:59:26.771Z,8.40
2022-12-01T09:02:30.682Z,7.24
2022-12-01T09:05:33.608Z,7.17
2022-12-01T09:08:37.488Z,7.83
2022-12-01T09:11:44.089Z,8.03
2022-12-01T09:14:52.062Z,8.12
2022-12-01T09:17:54.994Z,8.06
2022-12-01T09:21:09.356Z,7.89
2022-12-01T09:24:13.791Z,7.39
2022-12-01T09:27:16.426Z,8.21
2022-12-01T09:30:20.435Z,8.75
2022-12-01T09:33:23.067Z,8.29
2022-12-01T09:36:26.355Z,8.67
2022-12-01T09:39:29.733Z,8.59
2022-12-01T09:42:35.371Z,8.39
2022-12-01T09:45:45.298Z,9.05
2022-12-01T09:48:51.294Z,9.22
2022-12-01T09:51:59.762Z,9.43
2022-12-01T09:55:03.492Z,9.15
2022-12-01T09:58:25.183Z,9.09
2022-12-01T10:01:33.494Z,9.89
2022-12-01T10:04:39.994Z,9.47
2022-12-01T10:07:47.451Z,9.76
2022-12-01T10:10:54.952Z,9.67
2022-12-01T10:13:58.753Z,9.65
2022-12-01T10:17:18.703Z,9.70
2022-12-01T10:20:28.795Z,10.18
2022-12-01T10:23:46.608Z,11.23
2022-12-01T10:26:55.115Z,11.39
2022-12-01T10:30:03.263Z,12.03
2022-12-01T10:33:17.719Z,12.20
2022-12-01T10:36:21.262Z,11.15
2022-12-01T10:39:29.011Z,11.58
2022-12-01T10:42:39.802Z,10.94
2022-12-01T10:45:44.575Z,10.79
2022-12-01T10:48:55.446Z,9.74
2022-12-01T10:51:58.659Z,10.54
2022-12-01T10:55:04.234Z,9.99
2022-12-01T10:58:15.330Z,9.59
2022-12-01T11:01:22.073Z,9.54
2022-12-01T11:04:46.221Z,10.61
2022-12-01T11:07:53.302Z,10.53
2022-12-01T11:10:56.942Z,10.77
2022-12-01T11:14:02.247Z,11.10
2022-12-01T11:17:28.636Z,12.41
2022-12-01T11:20:35.557Z,13.14
2022-12-01T11:23:39.760Z,14.01
2022-12-01T11:26:42.507Z,13.90
2022-12-01T11:29:48.169Z,13.89
2022-12-01T11:32:53.815Z,14.83
2022-12-01T11:35:58.082Z,13.15
2022-12-01T11:39:02.543Z,14.48
2022-12-01T11:42:14.892Z,14.06
2022-12-01T11:45:25.470Z,15.22
2022-12-01T11:48:30.811Z,16.08
2022-12-01T11:51:38.019Z,15.12
2022-12-01T11:54:55.489Z,15.42
2022-12-01T11:58:01.846Z,15.52
2022-12-01T12:01:20.539Z,14.85
2022-12-01T12:04:39.463Z,14.20
2022-12-01T12:07:53.053Z,13.92
2022-12-01T12:11:04.841Z,14.21
2022-12-01T12:14:37.957Z,14.38
2022-12-01T12:18:00.036Z,13.23
2022-12-01T12:21:14.472Z,12.37
2022-12-01T12:24:48.328Z,11.73
2022-12-01T12:28:06.096Z,11.09
2022-12-01T12:31:18.617Z,11.01
2022-12-01T12:34:35.284Z,10.88
2022-12-01T12:37:48.302Z,10.49
2022-12-01T12:40:56.156Z,10.85
2022-12-01T12:44:22.615Z,10.33
2022-12-01T12:47:36.488Z,10.27
2022-12-01T12:50:45.105Z,9.84
2022-12-01T12:53:52.513Z,9.85
2022-12-01T12:57:04.795Z,9.66
2022-12-01T13:00:15.961Z,9.09
2022-12-01T13:03:29.204Z,8.96
2022-12-01T13:06:39.685Z,8.43
2022-12-01T13:09:45.515Z,8.27
2022-12-01T13:12:59.495Z,8.39
2022-12-01T13:16:05.482Z,7.96
2022-12-01T13:19:14.975Z,7.95
2022-12-01T13:22:21.123Z,7.90
2022-12-01T13:25:28.268Z,7.36
2022-12-01T13:28:41.766Z,7.55
2022-12-01T13:31:47.466Z,7.81
2022-12-01T13:34:51.243Z,7.98
2022-12-01T13:37:54.470Z,8.04
2022-12-01T13:41:24.391Z,7.80
2022-12-01T13:44:33.699Z,7.46
2022-12-01T13:47:55.438Z,7.38
2022-12-01T13:51:00.677Z,7.42
2022-12-01T13:54:05.612Z,7.44
2022-12-01T13:57:13.889Z,7.30
2022-12-01T14:00:28.742Z,6.89
2022-12-01T14:03:37.889Z,6.76
2022-12-01T14:06:51.961Z,6.72
2022-12-01T14:09:58.688Z,6.70
2022-12-01T14:13:05.196Z,6.48
2022-12-01T14:16:09.881Z,6.51
2022-12-01T14:19:28.317Z,6.20
2022-12-01T14:22:34.793Z,6.08
2022-12-01T14:25:39.185Z,6.05
2022-12-01T14:29:08.765Z,5.99
2022-12-01T14:32:23.292Z,5.77
2022-12-01T14:35:25.903Z,5.78
2022-12-01T14:38:29.259Z,5.58
2022-12-01T14:41:40.335Z,5.43
2022-12-01T14:44:48.127Z,5.26
2022-12-01T14:47:59.494Z,5.25
2022-12-01T14:51:19.531Z,5.08
2022-12-01T14:54:26.673Z,4.91
2022-12-01T14:57:32.972Z,4.77
2022-12-01T15:00:38.345Z,4.75
2022-12-01T15:03:46.651Z,4.57
2022-12-01T15:06:56.026Z,4.59
2022-12-01T15:09:59.804Z,4.57
2022-12-01T15:13:14.817Z,4.49
2022-12-01T15:16:19.792Z,4.25
2022-12-01T15:19:30.676Z,4.11
2022-12-01T15:22:34.150Z,4.02
2022-12-01T15:25:37.101Z,4.11
2022-12-01T15:28:40.540Z,3.94
2022-12-01T15:31:44.927Z,3.92
2022-12-01T15:34:51.234Z,3.81
2022-12-01T15:37:55.469Z,3.66
2022-12-01T15:41:27.862Z,3.50
2022-12-01T15:44:28.201Z,3.50
2022-12-01T15:47:35.951Z,3.49
2022-12-01T15:50:46.501Z,3.50
2022-12-01T15:53:53.677Z,3.54
2022-12-01T15:56:58.628Z,3.47
2022-12-01T16:00:01.115Z,3.42
2022-12-01T16:03:03.984Z,3.46
2022-12-01T16:06:11.837Z,3.37
2022-12-01T16:09:21.616Z,3.36
2022-12-01T16:12:26.057Z,3.27
2022-12-01T16:15:29.322Z,3.30
2022-12-01T16:18:33.587Z,3.30
2022-12-01T16:21:45.426Z,3.25
2022-12-01T16:24:50.588Z,3.22
2022-12-01T16:27:55.964Z,3.19
2022-12-01T16:30:58.887Z,3.20
2022-12-01T16:34:13.757Z,3.10
2022-12-01T16:37:27.848Z,3.14
2022-12-01T16:40:30.648Z,3.19
2022-12-01T16:43:33.100Z,3.04
2022-12-01T16:46:35.833Z,2.91
2022-12-01T16:49:38.451Z,2.87
2022-12-01T16:52:44.967Z,2.86
2022-12-01T16:55:51.884Z,2.78
2022-12-01T16:58:54.331Z,2.67
2022-12-01T17:01:56.814Z,2.53
2022-12-01T17:04:59.883Z,2.53
2022-12-01T17:08:05.438Z,2.53
2022-12-01T17:11:08.345Z,2.48
2022-12-01T17:14:11.288Z,2.36
2022-12-01T17:17:13.734Z,2.26
2022-12-01T17:20:16.667Z,2.18
2022-12-01T17:23:20.678Z,2.14
2022-12-01T17:26:24.118Z,2.07
2022-12-01T17:29:27.042Z,1.94
2022-12-01T17:32:29.906Z,1.86
2022-12-01T17:35:32.765Z,1.82
2022-12-01T17:38:38.227Z,1.78
2022-12-01T17:41:42.176Z,1.67
2022-12-01T17:44:44.779Z,1.67
2022-12-01T17:47:47.610Z,1.59
2022-12-01T17:50:50.211Z,1.59
2022-12-01T17:53:54.413Z,1.50
2022-12-01T17:57:01.688Z,1.44
2022-12-01T18:00:05.858Z,1.41
2022-12-01T18:03:11.076Z,1.37
2022-12-01T18:06:14.701Z,1.34
2022-12-01T18:09:19.128Z,1.33
2022-12-01T18:12:21.613Z,1.32
2022-12-01T18:15:26.537Z,1.27
2022-12-01T18:18:30.784Z,1.31
2022-12-01T18:21:34.027Z,1.24
2022-12-01T18:24:38.295Z,1.13
2022-12-01T18:27:40.843Z,1.08
2022-12-01T18:30:43.448Z,1.20
2022-12-01T18:33:46.139Z,1.15
2022-12-01T18:36:48.714Z,1.08
2022-12-01T18:39:54.866Z,0.99
2022-12-01T18:42:57.572Z,0.98
2022-12-01T18:46:02.422Z,0.95
2022-12-01T18:49:06.697Z,0.95
2022-12-01T18:52:09.472Z,0.90
2022-12-01T18:55:14.530Z,0.82
2022-12-01T18:58:17.028Z,0.82
2022-12-01T19:01:21.256Z,0.76
2022-12-01T19:04:24.202Z,0.82
2022-12-01T19:07:30.029Z,0.71
2022-12-01T19:10:35.062Z,0.73
2022-12-01T19:13:37.846Z,0.65
2022-12-01T19:16:40.922Z,0.60
2022-12-01T19:19:43.695Z,0.55
2022-12-01T19:22:46.801Z,0.54
2022-12-01T19:25:50.928Z,0.53
2022-12-01T19:28:53.802Z,0.52
2022-12-01T19:31:56.810Z,0.52
2022-12-01T19:34:59.628Z,0.46
2022-12-01T19:38:02.903Z,0.51
2022-12-01T19:41:09.336Z,0.61
2022-12-01T19:44:12.132Z,0.53
2022-12-01T19:47:19.154Z,0.47
2022-12-01T19:50:24.859Z,0.49
2022-12-01T19:53:33.494Z,0.49
2022-12-01T19:56:38.027Z,0.53
2022-12-01T19:59:41.949Z,0.40
2022-12-01T20:02:45.912Z,0.34
2022-12-01T20:05:48.397Z,0.39
2022-12-01T20:08:52.340Z,0.36
2022-12-01T20:11:56.510Z,0.29
2022-12-01T20:15:00.542Z,0.37
2022-12-01T20:18:03.251Z,0.33
2022-12-01T20:21:08.142Z,0.28
2022-12-01T20:24:13.547Z,0.23
2022-12-01T20:27:17.429Z,0.23
2022-12-01T20:30:20.061Z,0.22
2022-12-01T20:33:23.188Z,0.22
2022-12-01T20:36:26.971Z,0.24
2022-12-01T20:39:32.399Z,0.14
2022-12-01T20:42:39.617Z,0.19
2022-12-01T20:45:42.341Z,0.11
2022-12-01T20:48:45.313Z,0.20
2022-12-01T20:51:48.136Z,0.29
2022-12-01T20:54:50.994Z,0.36
2022-12-01T20:57:55.236Z,0.26
2022-12-01T21:00:58.886Z,0.31
2022-12-01T21:04:02.311Z,0.44
2022-12-01T21:07:04.787Z,0.65
2022-12-01T21:10:07.884Z,0.87
2022-12-01T21:13:36.365Z,0.97
2022-12-01T21:16:39.635Z,1.03
2022-12-01T21:19:47.523Z,1.06
2022-12-01T21:22:51.123Z,1.09
2022-12-01T21:25:53.574Z,1.26
2022-12-01T21:28:59.808Z,1.39
2022-12-01T21:32:11.337Z,1.35
2022-12-01T21:35:17.836Z,1.50
2022-12-01T21:38:22.120Z,1.64
2022-12-01T21:41:26.390Z,1.75
2022-12-01T21:44:36.074Z,1.82
2022-12-01T21:47:38.603Z,1.88
2022-12-01T21:50:41.100Z,1.80
2022-12-01T21:53:43.938Z,1.87
2022-12-01T21:56:47.869Z,1.83
2022-12-01T21:59:57.801Z,1.91
2022-12-01T22:03:14.220Z,1.87
2022-12-01T22:06:30.745Z,2.02
2022-12-01T22:09:35.294Z,1.92
2022-12-01T22:12:38.699Z,2.00
2022-12-01T22:15:42.859Z,2.06
2022-12-01T22:18:48.208Z,2.05
2022-12-01T22:21:54.648Z,2.17
2022-12-01T22:25:00.057Z,2.17
2022-12-01T22:28:03.084Z,2.26
2022-12-01T22:31:14.711Z,2.29
2022-12-01T22:34:20.238Z,2.42
2022-12-01T22:37:26.883Z,2.37
2022-12-01T22:40:36.388Z,2.38
2022-12-01T22:43:44.861Z,2.30
2022-12-01T22:46:48.713Z,2.18
2022-12-01T22:49:51.327Z,2.26
2022-12-01T22:52:54.188Z,2.26
2022-12-01T22:56:00.101Z,2.22
2022-12-01T22:59:13.139Z,2.28
2022-12-01T23:02:21.499Z,2.27
2022-12-01T23:05:26.994Z,2.38
2022-12-01T23:08:29.468Z,2.49
2022-12-01T23:11:32.916Z,2.22
2022-12-01T23:14:38.468Z,2.16
2022-12-01T23:17:42.298Z,2.15
2022-12-01T23:20:47.592Z,2.16
2022-12-01T23:23:50.151Z,2.24
2022-12-01T23:26:52.724Z,2.13
2022-12-01T23:29:55.230Z,2.14
2022-12-01T23:33:16.254Z,2.33
2022-12-01T23:36:22.924Z,2.32
2022-12-01T23:39:31.812Z,2.45
2022-12-01T23:42:34.260Z,2.25
2022-12-01T23:45:37.376Z,2.32
2022-12-01T23:48:45.764Z,2.45
2022-12-01T23:51:51.226Z,2.14
2022-12-01T23:54:53.713Z,1.98
2022-12-01T23:57:56.776Z,1.90
